createdAt,value
2022-11-27T00:01:29.413Z,23.00
2022-11-27T00:03:57.037Z,19.67
2022-11-27T00:06:26.476Z,19.27
2022-11-27T00:08:55.846Z,19.17
2022-11-27T00:11:24.685Z,19.00
2022-11-27T00:13:52.716Z,18.63
2022-11-27T00:16:22.065Z,19.40
2022-11-27T00:18:50.131Z,19.87
2022-11-27T00:21:19.179Z,20.50
2022-11-27T00:23:46.249Z,19.70
2022-11-27T00:26:13.382Z,20.07
2022-11-27T00:28:40.554Z,19.80
2022-11-27T00:31:13.070Z,19.93
2022-11-27T00:33:40.214Z,19.70
2022-11-27T00:36:08.234Z,16.90
2022-11-27T00:38:38.977Z,17.60
2022-11-27T00:41:17.540Z,16.63
2022-11-27T00:43:45.683Z,15.20
2022-11-27T00:46:17.638Z,15.83
2022-11-27T00:48:46.463Z,16.13
2022-11-27T00:51:18.029Z,15.70
2022-11-27T00:53:45.462Z,15.60
2022-11-27T00:56:18.123Z,16.07
2022-11-27T00:58:45.568Z,16.10
2022-11-27T01:01:23.211Z,16.47
2022-11-27T01:03:51.199Z,15.97
2022-11-27T01:06:21.075Z,16.10
2022-11-27T01:08:48.671Z,16.03
2022-11-27T01:11:30.036Z,16.00
2022-11-27T01:14:01.341Z,15.47
2022-11-27T01:16:30.441Z,16.30
2022-11-27T01:19:00.116Z,15.60
2022-11-27T01:21:29.578Z,16.03
2022-11-27T01:24:00.272Z,16.13
2022-11-27T01:26:27.731Z,16.10
2022-11-27T01:28:56.477Z,15.40
2022-11-27T01:31:25.774Z,15.90
2022-11-27T01:33:54.701Z,15.90
2022-11-27T01:36:22.256Z,15.97
2022-11-27T01:38:49.635Z,14.60
2022-11-27T01:41:20.626Z,15.23
2022-11-27T01:43:49.520Z,15.50
2022-11-27T01:46:25.429Z,15.20
2022-11-27T01:48:54.958Z,15.00
2022-11-27T01:51:23.020Z,15.20
2022-11-27T01:53:52.072Z,15.33
2022-11-27T01:56:21.007Z,15.97
2022-11-27T01:58:48.871Z,16.10
2022-11-27T02:01:16.101Z,15.17
2022-11-27T02:03:43.229Z,16.50
2022-11-27T02:06:14.077Z,15.27
2022-11-27T02:08:42.517Z,15.43
2022-11-27T02:11:19.402Z,15.27
2022-11-27T02:13:53.475Z,15.23
2022-11-27T02:16:40.212Z,12.83
2022-11-27T02:19:19.254Z,13.17
2022-11-27T02:21:57.690Z,13.97
2022-11-27T02:24:46.709Z,15.00
2022-11-27T02:27:26.305Z,13.97
2022-11-27T02:29:57.519Z,14.47
2022-11-27T02:32:29.982Z,15.43
2022-11-27T02:35:35.605Z,16.03
2022-11-27T02:38:18.683Z,17.53
2022-11-27T02:40:54.243Z,18.83
2022-11-27T02:43:28.808Z,19.53
2022-11-27T02:45:58.149Z,21.13
2022-11-27T02:48:37.484Z,21.20
2022-11-27T02:51:06.268Z,21.30
2022-11-27T02:53:40.617Z,20.90
2022-11-27T02:56:11.964Z,21.60
2022-11-27T02:58:40.568Z,21.30
2022-11-27T03:01:14.913Z,20.80
2022-11-27T03:03:47.105Z,21.40
2022-11-27T03:06:23.537Z,22.07
2022-11-27T03:09:08.640Z,21.70
2022-11-27T03:11:37.313Z,21.13
2022-11-27T03:14:08.675Z,22.13
2022-11-27T03:17:02.981Z,23.10
2022-11-27T03:19:40.327Z,21.93
2022-11-27T03:22:07.497Z,23.37
2022-11-27T03:24:36.136Z,25.20
2022-11-27T03:27:04.792Z,24.17
2022-11-27T03:29:41.344Z,24.67
2022-11-27T03:32:08.748Z,23.87
2022-11-27T03:34:36.768Z,24.73
2022-11-27T03:37:04.708Z,26.73
2022-11-27T03:39:33.120Z,26.73
2022-11-27T03:42:18.635Z,24.93
2022-11-27T03:45:10.126Z,24.40
2022-11-27T03:48:17.831Z,24.83
2022-11-27T03:51:00.368Z,24.03
2022-11-27T03:53:56.842Z,23.30
2022-11-27T03:56:48.021Z,24.40
2022-11-27T03:59:24.076Z,23.13
2022-11-27T04:01:51.545Z,22.73
2022-11-27T04:04:18.950Z,22.53
2022-11-27T04:06:45.977Z,22.27
2022-11-27T04:09:13.401Z,22.30
2022-11-27T04:11:40.745Z,21.97
2022-11-27T04:14:07.876Z,21.77
2022-11-27T04:16:34.934Z,22.50
2022-11-27T04:19:02.035Z,22.97
2022-11-27T04:21:29.749Z,23.23
2022-11-27T04:23:56.743Z,24.20
2022-11-27T04:26:24.813Z,23.57
2022-11-27T04:28:51.759Z,24.17
2022-11-27T04:31:18.934Z,24.03
2022-11-27T04:33:45.894Z,24.20
2022-11-27T04:36:12.833Z,23.00
2022-11-27T04:38:39.757Z,23.37
2022-11-27T04:41:06.764Z,22.80
2022-11-27T04:43:33.879Z,23.30
2022-11-27T04:46:00.799Z,23.17
2022-11-27T04:48:27.900Z,23.23
2022-11-27T04:50:56.019Z,22.93
2022-11-27T04:53:23.332Z,22.73
2022-11-27T04:55:52.344Z,22.93
2022-11-27T04:58:19.310Z,23.90
2022-11-27T05:00:46.399Z,24.47
2022-11-27T05:03:13.496Z,26.33
2022-11-27T05:05:40.595Z,25.70
2022-11-27T05:08:07.696Z,25.07
2022-11-27T05:10:34.611Z,25.77
2022-11-27T05:13:01.629Z,24.03
2022-11-27T05:15:28.585Z,23.90
2022-11-27T05:17:55.588Z,24.20
2022-11-27T05:20:22.580Z,24.77
2022-11-27T05:22:50.138Z,24.83
2022-11-27T05:25:17.229Z,25.40
2022-11-27T05:27:44.176Z,23.97
2022-11-27T05:30:11.325Z,26.20
2022-11-27T05:32:38.532Z,24.13
2022-11-27T05:35:05.868Z,24.77
2022-11-27T05:37:32.794Z,26.37
2022-11-27T05:40:00.033Z,25.30
2022-11-27T05:42:27.035Z,25.73
2022-11-27T05:44:58.258Z,26.07
2022-11-27T05:47:25.837Z,25.47
2022-11-27T05:49:53.393Z,26.23
2022-11-27T05:52:20.450Z,25.20
2022-11-27T05:54:47.388Z,25.40
2022-11-27T05:57:14.363Z,25.33
2022-11-27T05:59:41.359Z,25.17
2022-11-27T06:02:08.457Z,25.03
2022-11-27T06:04:35.657Z,23.77
2022-11-27T06:07:02.757Z,22.67
2022-11-27T06:09:29.960Z,22.83
2022-11-27T06:11:57.138Z,23.93
2022-11-27T06:14:24.290Z,24.37
2022-11-27T06:16:51.265Z,24.50
2022-11-27T06:19:18.320Z,20.23
2022-11-27T06:21:46.644Z,23.90
2022-11-27T06:24:14.011Z,25.77
2022-11-27T06:26:40.988Z,23.90
2022-11-27T06:29:09.315Z,26.03
2022-11-27T06:31:36.659Z,26.57
2022-11-27T06:34:04.543Z,24.40
2022-11-27T06:36:34.757Z,24.13
2022-11-27T06:39:04.595Z,25.20
2022-11-27T06:41:32.052Z,26.73
2022-11-27T06:44:00.904Z,25.13
2022-11-27T06:46:28.681Z,26.90
2022-11-27T06:48:56.958Z,24.70
2022-11-27T06:51:26.770Z,23.90
2022-11-27T06:53:54.687Z,24.63
2022-11-27T06:56:24.606Z,24.53
2022-11-27T06:58:56.774Z,24.43
2022-11-27T07:01:25.986Z,23.97
2022-11-27T07:03:53.692Z,24.67
2022-11-27T07:06:23.645Z,23.97
2022-11-27T07:08:50.892Z,23.03
2022-11-27T07:11:20.251Z,22.50
2022-11-27T07:13:49.068Z,22.40
2022-11-27T07:16:17.330Z,22.80
2022-11-27T07:18:53.323Z,23.50
2022-11-27T07:21:21.583Z,22.93
2022-11-27T07:23:48.850Z,23.03
2022-11-27T07:26:18.466Z,21.87
2022-11-27T07:28:45.759Z,21.63
2022-11-27T07:31:15.187Z,24.10
2022-11-27T07:33:42.301Z,19.53
2022-11-27T07:36:14.487Z,18.47
2022-11-27T07:38:41.879Z,19.40
2022-11-27T07:41:09.504Z,18.90
2022-11-27T07:43:37.473Z,18.23
2022-11-27T07:46:06.992Z,17.77
2022-11-27T07:48:34.372Z,16.00
2022-11-27T07:51:01.541Z,15.93
2022-11-27T07:53:28.527Z,17.53
2022-11-27T07:56:00.309Z,17.03
2022-11-27T07:58:27.405Z,17.00
2022-11-27T08:00:54.637Z,16.67
2022-11-27T08:03:22.005Z,17.53
2022-11-27T08:05:48.979Z,17.60
2022-11-27T08:08:15.973Z,16.73
2022-11-27T08:10:43.093Z,16.93
2022-11-27T08:13:10.387Z,16.70
2022-11-27T08:15:37.897Z,16.80
2022-11-27T08:18:05.156Z,16.53
2022-11-27T08:20:32.227Z,16.00
2022-11-27T08:23:02.671Z,15.83
2022-11-27T08:25:30.542Z,15.50
2022-11-27T08:27:57.796Z,15.23
2022-11-27T08:30:25.036Z,14.27
2022-11-27T08:32:52.147Z,14.10
2022-11-27T08:35:19.239Z,13.73
2022-11-27T08:37:46.516Z,13.67
2022-11-27T08:40:13.550Z,14.00
2022-11-27T08:42:40.627Z,15.20
2022-11-27T08:45:08.092Z,14.70
2022-11-27T08:47:35.127Z,15.40
2022-11-27T08:50:02.146Z,15.43
2022-11-27T08:52:29.119Z,15.00
2022-11-27T08:54:58.033Z,15.50
2022-11-27T08:57:25.569Z,14.63
2022-11-27T08:59:52.542Z,14.00
2022-11-27T09:02:19.535Z,15.23
2022-11-27T09:04:46.399Z,14.83
2022-11-27T09:07:16.054Z,14.20
2022-11-27T09:09:43.418Z,13.97
2022-11-27T09:12:10.515Z,13.57
2022-11-27T09:14:37.976Z,13.20
2022-11-27T09:17:05.300Z,13.73
2022-11-27T09:19:32.466Z,14.30
2022-11-27T09:21:59.654Z,12.70
2022-11-27T09:24:26.565Z,13.30
2022-11-27T09:26:53.549Z,13.33
2022-11-27T09:29:21.167Z,14.53
2022-11-27T09:31:48.490Z,11.93
2022-11-27T09:34:15.521Z,12.27
2022-11-27T09:36:42.610Z,12.60
2022-11-27T09:39:09.956Z,11.57
2022-11-27T09:41:50.166Z,12.37
2022-11-27T09:44:23.735Z,12.93
2022-11-27T09:46:52.649Z,11.97
2022-11-27T09:49:39.884Z,11.80
2022-11-27T09:52:27.310Z,10.80
2022-11-27T09:55:02.551Z,11.03
2022-11-27T09:57:37.283Z,11.53
2022-11-27T10:00:28.187Z,12.77
2022-11-27T10:02:55.315Z,12.90
2022-11-27T10:05:58.325Z,11.93
2022-11-27T10:08:38.206Z,12.60
2022-11-27T10:11:35.915Z,13.40
2022-11-27T10:14:27.699Z,14.30
2022-11-27T10:17:07.785Z,13.17
2022-11-27T10:20:13.277Z,14.63
2022-11-27T10:22:59.146Z,13.63
2022-11-27T10:25:40.231Z,14.97
2022-11-27T10:28:27.836Z,16.10
2022-11-27T10:31:10.165Z,15.37
2022-11-27T10:33:53.792Z,15.83
2022-11-27T10:36:32.017Z,16.00
2022-11-27T10:39:01.543Z,16.67
2022-11-27T10:41:48.892Z,16.37
2022-11-27T10:44:31.775Z,16.77
2022-11-27T10:47:08.900Z,16.48
2022-11-27T10:49:40.406Z,17.23
2022-11-27T10:52:14.238Z,17.27
2022-11-27T10:54:42.857Z,17.63
2022-11-27T10:57:28.700Z,17.73
2022-11-27T11:00:11.085Z,16.97
2022-11-27T11:02:40.012Z,17.70
2022-11-27T11:08:19.221Z,18.03
2022-11-27T11:10:54.791Z,18.03
2022-11-27T11:13:29.395Z,17.43
2022-11-27T11:16:18.386Z,17.90
2022-11-27T11:18:53.128Z,16.80
2022-11-27T11:21:41.052Z,17.40
2022-11-27T11:24:15.930Z,16.70
2022-11-27T11:26:49.310Z,16.10
2022-11-27T11:29:50.851Z,14.10
2022-11-27T11:32:20.624Z,16.87
2022-11-27T11:35:04.023Z,15.33
2022-11-27T11:37:38.703Z,16.00
2022-11-27T11:40:20.678Z,15.67
2022-11-27T11:43:02.819Z,15.20
2022-11-27T11:45:33.157Z,16.40
2022-11-27T11:48:02.391Z,17.07
2022-11-27T11:50:48.416Z,15.67
2022-11-27T11:53:35.134Z,16.00
2022-11-27T11:56:37.739Z,15.97
2022-11-27T11:59:14.697Z,16.23
2022-11-27T12:01:56.993Z,15.87
2022-11-27T12:05:17.263Z,15.60
2022-11-27T12:08:15.761Z,15.32
2022-11-27T12:11:11.519Z,15.37
2022-11-27T12:14:04.785Z,15.75
2022-11-27T12:17:11.068Z,16.47
2022-11-27T12:20:08.877Z,16.17
2022-11-27T12:22:57.523Z,16.45
2022-11-27T12:25:38.687Z,15.45
2022-11-27T12:28:26.433Z,16.08
2022-11-27T12:31:00.456Z,16.50
2022-11-27T12:33:34.093Z,16.63
2022-11-27T12:36:21.393Z,16.10
2022-11-27T12:39:08.118Z,15.80
2022-11-27T12:42:02.851Z,17.10
2022-11-27T12:45:29.521Z,16.35
2022-11-27T12:48:08.139Z,17.00
2022-11-27T12:51:01.081Z,17.20
2022-11-27T12:53:47.019Z,16.67
2022-11-27T12:56:26.485Z,17.53
2022-11-27T12:59:05.236Z,17.37
2022-11-27T13:01:42.882Z,17.57
2022-11-27T13:04:32.557Z,17.77
2022-11-27T13:07:40.313Z,17.73
2022-11-27T13:10:34.505Z,17.30
2022-11-27T13:13:14.032Z,16.87
2022-11-27T13:16:07.328Z,18.90
2022-11-27T13:18:39.730Z,16.53
2022-11-27T13:21:15.079Z,16.10
2022-11-27T13:23:42.252Z,16.53
2022-11-27T13:26:26.317Z,17.13
2022-11-27T13:28:58.641Z,16.63
2022-11-27T13:31:33.313Z,16.67
2022-11-27T13:34:05.048Z,16.57
2022-11-27T13:36:45.689Z,15.77
2022-11-27T13:39:33.009Z,16.23
2022-11-27T13:42:12.466Z,16.77
2022-11-27T13:44:46.466Z,16.63
2022-11-27T13:47:18.340Z,16.53
2022-11-27T13:49:46.475Z,17.03
2022-11-27T13:52:19.941Z,17.50
2022-11-27T13:54:57.124Z,16.97
2022-11-27T13:57:26.763Z,18.23
2022-11-27T14:00:01.183Z,17.77
2022-11-27T14:02:47.552Z,18.90
2022-11-27T14:05:17.672Z,18.63
2022-11-27T14:07:52.587Z,19.17
2022-11-27T14:10:29.719Z,19.43
2022-11-27T14:13:10.161Z,19.57
2022-11-27T14:15:38.461Z,19.80
2022-11-27T14:18:14.356Z,20.20
2022-11-27T14:20:58.692Z,20.17
2022-11-27T14:23:48.452Z,20.00
2022-11-27T14:26:15.786Z,19.83
2022-11-27T14:28:45.820Z,20.83
2022-11-27T14:31:33.732Z,21.07
2022-11-27T14:34:24.278Z,22.27
2022-11-27T14:36:53.042Z,20.37
2022-11-27T14:39:28.702Z,21.00
2022-11-27T14:42:08.083Z,21.07
2022-11-27T14:44:35.407Z,21.70
2022-11-27T14:47:05.636Z,21.20
2022-11-27T14:49:34.293Z,22.40
2022-11-27T14:52:13.049Z,22.07
2022-11-27T14:54:41.226Z,21.60
2022-11-27T14:57:18.310Z,22.03
2022-11-27T14:59:45.680Z,23.07
2022-11-27T15:02:12.771Z,21.20
2022-11-27T15:04:45.727Z,22.77
2022-11-27T15:07:25.144Z,22.10
2022-11-27T15:09:55.558Z,22.50
2022-11-27T15:12:44.589Z,21.93
2022-11-27T15:15:20.387Z,22.13
2022-11-27T15:17:51.693Z,23.80
2022-11-27T15:20:23.900Z,22.47
2022-11-27T15:23:00.773Z,23.30
2022-11-27T15:25:43.138Z,23.23
2022-11-27T15:28:53.847Z,22.90
2022-11-27T15:31:26.957Z,22.97
2022-11-27T15:34:05.363Z,23.03
2022-11-27T15:36:47.925Z,24.13
2022-11-27T15:39:27.655Z,23.93
2022-11-27T15:42:00.363Z,24.20
2022-11-27T15:44:30.315Z,23.83
2022-11-27T15:47:01.721Z,24.87
2022-11-27T15:49:29.729Z,24.47
2022-11-27T15:51:57.958Z,25.13
2022-11-27T15:54:25.633Z,24.20
2022-11-27T15:56:54.162Z,23.90
2022-11-27T15:59:21.341Z,24.57
2022-11-27T16:01:49.809Z,26.00
2022-11-27T16:04:17.368Z,25.63
2022-11-27T16:06:45.148Z,25.30
2022-11-27T16:09:12.356Z,25.67
2022-11-27T16:11:39.394Z,26.93
2022-11-27T16:14:06.509Z,27.20
2022-11-27T16:16:35.756Z,26.40
2022-11-27T16:19:07.713Z,27.63
2022-11-27T16:21:35.848Z,27.47
2022-11-27T16:24:06.234Z,26.37
2022-11-27T16:26:34.534Z,27.37
2022-11-27T16:29:01.568Z,26.53
2022-11-27T16:31:29.028Z,26.30
2022-11-27T16:34:01.695Z,23.53
2022-11-27T16:36:29.417Z,25.53
2022-11-27T16:38:56.804Z,25.20
2022-11-27T16:41:25.498Z,22.83
2022-11-27T16:43:57.059Z,22.60
2022-11-27T16:46:30.411Z,23.30
2022-11-27T16:48:59.392Z,22.70
2022-11-27T16:51:31.349Z,22.80
2022-11-27T16:54:00.089Z,22.23
2022-11-27T16:56:29.461Z,23.43
2022-11-27T16:59:02.723Z,22.40
2022-11-27T17:01:34.688Z,22.03
2022-11-27T17:04:04.891Z,23.27
2022-11-27T17:06:33.759Z,21.97
2022-11-27T17:09:02.643Z,22.77
2022-11-27T17:11:35.596Z,23.03
2022-11-27T17:14:06.094Z,22.53
2022-11-27T17:16:34.866Z,22.43
2022-11-27T17:19:03.909Z,21.07
2022-11-27T17:21:34.270Z,22.13
2022-11-27T17:24:04.557Z,22.90
2022-11-27T17:26:38.725Z,23.13
2022-11-27T17:29:05.798Z,21.73
2022-11-27T17:31:34.131Z,23.03
2022-11-27T17:34:01.603Z,22.60
2022-11-27T17:36:35.296Z,23.57
2022-11-27T17:39:05.775Z,24.40
2022-11-27T17:41:33.936Z,24.33
2022-11-27T17:44:06.221Z,24.67
2022-11-27T17:46:34.439Z,25.87
2022-11-27T17:49:05.162Z,27.07
2022-11-27T17:51:35.310Z,25.07
2022-11-27T17:54:03.742Z,26.07
2022-11-27T17:56:33.243Z,26.43
2022-11-27T17:59:01.620Z,26.77
2022-11-27T18:01:34.326Z,27.73
2022-11-27T18:04:03.642Z,27.47
2022-11-27T18:06:32.003Z,27.90
2022-11-27T18:08:59.564Z,28.03
2022-11-27T18:11:28.905Z,27.57
2022-11-27T18:13:59.281Z,28.10
2022-11-27T18:16:36.338Z,29.10
2022-11-27T18:19:09.269Z,28.23
2022-11-27T18:21:37.473Z,29.07
2022-11-27T18:24:23.440Z,28.43
2022-11-27T18:27:10.572Z,28.50
2022-11-27T18:29:40.068Z,28.40
2022-11-27T18:32:08.370Z,28.20
2022-11-27T18:34:35.577Z,28.90
2022-11-27T18:37:03.465Z,29.67
2022-11-27T18:39:31.562Z,30.00
2022-11-27T18:41:58.689Z,29.30
2022-11-27T18:44:26.857Z,30.20
2022-11-27T18:46:54.152Z,29.17
2022-11-27T18:49:23.232Z,31.73
2022-11-27T18:51:52.576Z,30.47
2022-11-27T18:54:20.101Z,30.20
2022-11-27T18:56:47.531Z,30.43
2022-11-27T18:59:14.542Z,30.53
2022-11-27T19:01:42.710Z,32.03
2022-11-27T19:04:12.679Z,30.10
2022-11-27T19:06:42.473Z,31.07
2022-11-27T19:09:13.041Z,31.63
2022-11-27T19:11:43.156Z,29.97
2022-11-27T19:14:13.861Z,31.43
2022-11-27T19:16:46.603Z,31.13
2022-11-27T19:22:08.187Z,30.87
2022-11-27T19:24:35.805Z,32.37
2022-11-27T19:27:03.135Z,31.57
2022-11-27T19:29:30.783Z,31.87
2022-11-27T19:31:59.148Z,31.27
2022-11-27T19:34:26.922Z,31.17
2022-11-27T19:36:55.199Z,31.83
2022-11-27T19:39:27.831Z,31.30
2022-11-27T19:41:55.516Z,31.80
2022-11-27T19:44:23.867Z,31.63
2022-11-27T19:46:52.516Z,31.73
2022-11-27T19:49:19.858Z,33.23
2022-11-27T19:51:47.330Z,31.97
2022-11-27T19:54:16.080Z,33.47
2022-11-27T19:56:44.150Z,32.40
2022-11-27T19:59:12.829Z,31.77
2022-11-27T20:01:44.561Z,32.30
2022-11-27T20:04:13.014Z,34.93
2022-11-27T20:06:41.266Z,34.23
2022-11-27T20:09:10.596Z,34.03
2022-11-27T20:11:39.669Z,34.80
2022-11-27T20:14:08.206Z,35.53
2022-11-27T20:16:36.846Z,34.60
2022-11-27T20:19:06.545Z,35.23
2022-11-27T20:21:35.835Z,34.13
2022-11-27T20:24:03.930Z,34.63
2022-11-27T20:26:41.244Z,35.53
2022-11-27T20:29:12.493Z,34.53
2022-11-27T20:31:41.975Z,35.07
2022-11-27T20:34:18.806Z,36.03
2022-11-27T20:36:46.470Z,35.07
2022-11-27T20:39:21.264Z,34.93
2022-11-27T20:41:52.155Z,37.17
2022-11-27T20:44:20.635Z,36.83
2022-11-27T20:46:48.884Z,37.60
2022-11-27T20:49:17.511Z,36.53
2022-11-27T20:51:49.825Z,37.77
2022-11-27T20:54:23.365Z,37.90
2022-11-27T20:56:51.461Z,38.47
2022-11-27T20:59:19.823Z,38.53
2022-11-27T21:01:47.632Z,38.47
2022-11-27T21:04:25.981Z,39.10
2022-11-27T21:06:54.085Z,39.80
2022-11-27T21:09:21.627Z,39.63
2022-11-27T21:11:48.845Z,39.63
2022-11-27T21:14:16.931Z,39.60
2022-11-27T21:16:48.643Z,41.20
2022-11-27T21:19:22.306Z,41.00
2022-11-27T21:21:50.910Z,41.47
2022-11-27T21:24:19.564Z,42.30
2022-11-27T21:26:47.314Z,41.83
2022-11-27T21:29:16.234Z,40.70
2022-11-27T21:31:46.824Z,42.10
2022-11-27T21:34:15.945Z,41.17
2022-11-27T21:36:44.463Z,42.23
2022-11-27T21:39:14.494Z,41.87
2022-11-27T21:41:41.495Z,41.17
2022-11-27T21:44:08.459Z,41.77
2022-11-27T21:46:36.412Z,41.27
2022-11-27T21:49:05.965Z,39.80
2022-11-27T21:51:34.380Z,42.13
2022-11-27T21:54:11.299Z,40.30
2022-11-27T21:56:40.390Z,41.23
2022-11-27T21:59:10.677Z,41.27
2022-11-27T22:01:38.419Z,39.70
2022-11-27T22:04:05.445Z,40.80
2022-11-27T22:06:40.444Z,41.30
2022-11-27T22:09:13.436Z,39.90
2022-11-27T22:11:42.460Z,41.57
2022-11-27T22:14:09.778Z,39.97
2022-11-27T22:16:44.914Z,40.63
2022-11-27T22:19:14.439Z,42.47
2022-11-27T22:21:41.792Z,39.37
2022-11-27T22:24:15.020Z,41.53
2022-11-27T22:26:45.360Z,40.57
2022-11-27T22:29:13.794Z,41.27
2022-11-27T22:31:41.551Z,42.00
2022-11-27T22:34:08.584Z,41.13
2022-11-27T22:36:35.816Z,41.03
2022-11-27T22:39:06.989Z,42.03
2022-11-27T22:41:37.021Z,41.20
2022-11-27T22:44:17.663Z,41.37
2022-11-27T22:46:45.860Z,41.87
2022-11-27T22:49:15.552Z,40.93
2022-11-27T22:51:43.854Z,41.27
2022-11-27T22:54:13.221Z,41.87
2022-11-27T22:56:40.298Z,41.47
2022-11-27T22:59:31.823Z,40.93
2022-11-27T23:01:58.369Z,41.93
2022-11-27T23:04:25.687Z,43.00
2022-11-27T23:06:52.854Z,41.73
2022-11-27T23:09:20.503Z,42.97
2022-11-27T23:11:48.067Z,42.37
2022-11-27T23:14:15.335Z,44.77
2022-11-27T23:16:42.906Z,43.43
2022-11-27T23:19:10.771Z,44.40
2022-11-27T23:21:38.942Z,46.03
2022-11-27T23:24:08.707Z,44.10
2022-11-27T23:26:36.141Z,44.57
2022-11-27T23:29:03.489Z,45.13
2022-11-27T23:31:35.965Z,45.67
2022-11-27T23:34:07.432Z,45.17
2022-11-27T23:36:35.382Z,47.63
2022-11-27T23:39:04.708Z,46.27
2022-11-27T23:41:31.913Z,46.13
2022-11-27T23:43:59.183Z,45.93
2022-11-27T23:46:28.446Z,46.53
2022-11-27T23:48:56.845Z,44.90
2022-11-27T23:51:27.621Z,45.50
2022-11-27T23:53:54.835Z,46.73
2022-11-27T23:56:24.623Z,48.00
2022-11-27T23:58:52.104Z,46.47
